Time;durP1;ratioP1;P1;durP2;ratioP2;P2;SDS_P1;SDS_P2;PMS_P1;PMS_P2;Temp;Humidity;BMP_temperature;BMP_pressure;BME280_temperature;BME280_humidity;BME280_pressure;Samples;Min_cycle;Max_cycle;Signal;HPM_P1;HPM_P2
2022/01/27 00:03:23;;;;;;;35.90;21.17;;;-0.50;99.90;-0.90;97523.00;;;;5092456;28;20444;-83
2022/01/27 00:06:14;;;;;;;37.27;22.57;;;-0.50;99.90;-1.20;97515.00;;;;5093203;28;20803;-83
2022/01/27 00:09:12;;;;;;;40.97;22.97;;;-0.60;99.90;-1.10;97513.00;;;;5093509;28;20429;-83
2022/01/27 00:12:02;;;;;;;41.33;24.77;;;-0.20;99.90;-1.00;97515.00;;;;5091826;28;20441;-83
2022/01/27 00:15:03;;;;;;;35.80;21.23;;;-0.60;99.90;-1.20;97502.00;;;;5092367;28;20862;-83
2022/01/27 00:17:58;;;;;;;39.13;21.07;;;-0.10;99.90;-1.10;97495.00;;;;5092540;28;20472;-83
2022/01/27 00:20:49;;;;;;;34.67;19.70;;;0.10;99.90;-1.20;97497.00;;;;5091405;28;20429;-83
2022/01/27 00:23:40;;;;;;;40.10;20.63;;;-0.60;99.90;-1.20;97496.00;;;;5092130;28;20520;-83
2022/01/27 00:26:29;;;;;;;36.13;19.43;;;-0.60;99.90;-1.20;97487.00;;;;5081730;28;20617;-83
2022/01/27 00:29:18;;;;;;;39.67;21.10;;;-0.30;99.90;-1.20;97492.00;;;;5092191;28;20445;-83
2022/01/27 00:32:07;;;;;;;32.77;19.23;;;-0.70;99.90;-1.20;97495.00;;;;5094044;27;20429;-83
2022/01/27 00:34:56;;;;;;;30.37;18.93;;;-0.70;99.90;-1.20;97494.00;;;;5091651;28;20456;-83
2022/01/27 00:37:47;;;;;;;30.73;18.73;;;-0.50;99.90;-1.20;97491.00;;;;5091228;28;20417;-83
2022/01/27 00:40:35;;;;;;;30.93;19.23;;;-0.70;99.90;-1.20;97482.00;;;;5092520;28;20425;-83
2022/01/27 00:43:25;;;;;;;35.40;20.43;;;-0.70;99.90;-1.20;97486.00;;;;5092404;28;20754;-83
2022/01/27 00:46:16;;;;;;;35.03;20.33;;;-0.70;99.90;-1.20;97484.00;;;;5085714;28;20418;-83
2022/01/27 00:49:05;;;;;;;32.50;19.67;;;-0.30;99.90;-1.20;97491.00;;;;5081396;28;20447;-83
2022/01/27 00:51:54;;;;;;;30.17;18.27;;;-0.70;99.90;-1.20;97489.00;;;;5093614;28;20433;-83
2022/01/27 00:54:45;;;;;;;30.77;19.00;;;-0.40;99.90;-1.40;97491.00;;;;5094505;28;21075;-83
2022/01/27 00:57:59;;;;;;;34.73;21.50;;;-0.40;99.90;-1.30;97485.00;;;;5092037;28;20780;-83
2022/01/27 01:00:53;;;;;;;34.10;20.40;;;-0.80;99.90;-1.30;97475.00;;;;5092823;28;20426;-83
2022/01/27 01:03:43;;;;;;;36.13;19.57;;;-0.80;99.90;-1.40;97469.00;;;;5092443;28;20445;-83
2022/01/27 01:06:38;;;;;;;34.17;21.30;;;0.40;99.90;-1.20;97473.00;;;;5091532;28;20440;-82
2022/01/27 01:15:47;;;;;;;39.47;22.63;;;-0.80;99.90;-1.10;97462.00;;;;5064447;28;20433;-83
2022/01/27 01:18:46;;;;;;;31.23;19.50;;;-0.80;99.90;-1.20;97473.00;;;;5086737;28;20518;-83
2022/01/27 01:21:53;;;;;;;34.97;20.60;;;-0.50;99.90;-1.10;97470.00;;;;5080800;28;20418;-83
2022/01/27 01:31:29;;;;;;;34.50;21.67;;;-0.80;99.90;-1.40;97453.00;;;;5091594;28;20424;-83
2022/01/27 01:34:21;;;;;;;33.33;20.37;;;-0.80;99.90;-1.40;97451.00;;;;5093118;28;20875;-83
2022/01/27 01:37:10;;;;;;;35.17;18.93;;;-0.40;99.90;-1.50;97455.00;;;;5090808;28;20417;-83
2022/01/27 01:39:58;;;;;;;34.30;20.33;;;-0.90;99.90;-1.60;97438.00;;;;5091545;28;20986;-83
2022/01/27 01:42:48;;;;;;;35.70;20.27;;;-1.00;99.90;-1.60;97458.00;;;;5090784;28;20457;-83
2022/01/27 01:45:38;;;;;;;30.27;17.87;;;-1.00;99.90;-1.70;97450.00;;;;5091252;28;20457;-83
2022/01/27 01:48:27;;;;;;;31.77;20.60;;;-1.10;99.90;-1.70;97436.00;;;;5085811;28;20452;-83
2022/01/27 01:51:24;;;;;;;32.50;19.63;;;-1.10;99.90;-1.70;97443.00;;;;5089919;28;20426;-82
2022/01/27 01:54:14;;;;;;;32.77;19.37;;;-0.60;99.90;-1.70;97452.00;;;;5091083;28;20453;-83
2022/01/27 01:57:03;;;;;;;37.70;20.03;;;-1.20;99.90;-1.90;97439.00;;;;5091216;28;20422;-83
2022/01/27 01:59:53;;;;;;;31.53;19.53;;;-1.30;99.90;-1.80;97435.00;;;;5090758;28;20474;-83
2022/01/27 02:02:43;;;;;;;35.60;20.17;;;-1.20;99.90;-1.80;97438.00;;;;5089902;28;20421;-83
2022/01/27 02:05:38;;;;;;;29.53;17.63;;;-1.30;99.90;-1.70;97440.00;;;;5089039;28;20445;-83
2022/01/27 02:08:38;;;;;;;33.33;21.33;;;-1.30;99.90;-1.80;97440.00;;;;5077599;28;20436;-83
2022/01/27 02:20:56;;;;;;;30.03;17.97;;;-1.40;99.90;-1.90;97433.00;;;;5059130;28;21021;-83
2022/01/27 02:23:45;;;;;;;36.33;19.40;;;-1.20;99.90;-2.00;97433.00;;;;5082996;28;20444;-83
2022/01/27 02:26:33;;;;;;;30.70;18.93;;;-1.40;99.90;-2.10;97415.00;;;;5078609;28;20441;-83
2022/01/27 02:29:25;;;;;;;31.10;16.17;;;-1.50;99.90;-2.40;97413.00;;;;5090225;28;20430;-82
2022/01/27 02:32:16;;;;;;;32.07;18.33;;;-1.50;99.90;-2.20;97426.00;;;;5093444;28;20935;-82
2022/01/27 02:35:07;;;;;;;28.37;17.80;;;-1.60;99.90;-2.10;97425.00;;;;5092349;28;20442;-83
2022/01/27 02:37:57;;;;;;;33.00;20.07;;;-1.60;99.90;-2.20;97423.00;;;;5091325;28;20425;-83
2022/01/27 02:40:54;;;;;;;27.67;18.83;;;-1.70;99.90;-2.40;97419.00;;;;5090492;28;20465;-83
2022/01/27 02:43:43;;;;;;;32.10;16.63;;;-1.70;99.90;-2.30;97411.00;;;;5091049;28;20846;-83
2022/01/27 02:46:42;;;;;;;31.93;18.10;;;-1.70;99.90;-2.20;97417.00;;;;5089710;28;20438;-83
2022/01/27 02:49:31;;;;;;;39.20;17.57;;;-1.70;99.90;-2.10;97417.00;;;;5089757;28;20434;-83
2022/01/27 02:52:20;;;;;;;31.20;17.73;;;-1.70;99.90;-2.20;97412.00;;;;5095964;27;20428;-83
2022/01/27 02:55:12;;;;;;;35.60;19.67;;;-1.70;99.90;-2.40;97420.00;;;;5092465;28;20526;-83
2022/01/27 02:58:02;;;;;;;35.73;19.03;;;-1.70;99.90;-2.20;97418.00;;;;5090141;28;20436;-83
2022/01/27 03:00:51;;;;;;;31.57;18.80;;;-1.70;99.90;-2.20;97419.00;;;;5088026;28;20473;-82
2022/01/27 03:03:40;;;;;;;30.53;18.27;;;-1.70;99.90;-2.30;97422.00;;;;5090168;28;20430;-83
2022/01/27 03:06:29;;;;;;;32.40;18.07;;;-1.10;99.90;-2.60;97418.00;;;;5088892;28;20436;-83
2022/01/27 03:09:18;;;;;;;32.67;18.40;;;-1.80;99.90;-2.60;97414.00;;;;5089682;28;20946;-83
2022/01/27 03:12:11;;;;;;;29.03;18.23;;;-1.00;99.90;-2.60;97421.00;;;;5090325;28;20438;-83
2022/01/27 03:15:00;;;;;;;28.43;18.50;;;-1.90;99.90;-2.60;97414.00;;;;5089983;28;20453;-83
2022/01/27 03:17:49;;;;;;;30.20;18.33;;;-1.90;99.90;-2.60;97407.00;;;;5089844;28;20426;-83
2022/01/27 03:20:39;;;;;;;34.53;16.90;;;-2.00;99.90;-2.50;97419.00;;;;5089657;28;20526;-83
2022/01/27 03:23:28;;;;;;;29.10;17.83;;;-2.00;99.90;-2.60;97413.00;;;;5090105;28;20452;-82
2022/01/27 03:26:17;;;;;;;37.20;18.57;;;-2.00;99.90;-2.70;97408.00;;;;5076013;28;20795;-83
2022/01/27 03:29:07;;;;;;;30.43;16.87;;;-2.10;99.90;-2.70;97418.00;;;;5091186;28;20422;-82
2022/01/27 03:31:56;;;;;;;35.13;20.17;;;-2.10;99.90;-2.80;97411.00;;;;5090423;28;20449;-82
2022/01/27 03:34:45;;;;;;;32.23;16.90;;;-2.10;99.90;-2.90;97405.00;;;;5090691;28;20460;-83
2022/01/27 03:37:34;;;;;;;30.30;17.90;;;-2.20;99.90;-3.20;97416.00;;;;5089889;28;20457;-83
2022/01/27 03:40:24;;;;;;;31.10;18.67;;;-2.30;99.90;-3.10;97412.00;;;;5072626;28;20465;-83
2022/01/27 03:43:13;;;;;;;31.60;18.77;;;-2.30;99.90;-3.10;97418.00;;;;5090111;28;20440;-83
2022/01/27 03:46:05;;;;;;;26.13;16.17;;;-2.40;99.90;-3.00;97421.00;;;;5079074;28;20502;-82
2022/01/27 03:48:53;;;;;;;37.53;18.47;;;-2.40;99.90;-3.10;97414.00;;;;5090740;28;20452;-83
2022/01/27 03:51:44;;;;;;;26.40;16.83;;;-2.50;99.90;-3.30;97401.00;;;;5089839;28;20441;-82
2022/01/27 03:54:33;;;;;;;27.93;15.93;;;-2.50;99.90;-3.40;97407.00;;;;5091190;28;20472;-83
2022/01/27 03:57:22;;;;;;;29.53;14.47;;;-2.60;99.90;-3.50;97410.00;;;;5091543;28;20422;-83
2022/01/27 04:00:12;;;;;;;21.50;14.57;;;-2.60;99.90;-3.70;97396.00;;;;5089274;28;20464;-83
2022/01/27 04:03:05;;;;;;;27.67;16.23;;;-2.70;99.90;-3.70;97399.00;;;;5088622;28;20773;-82
2022/01/27 04:05:56;;;;;;;22.73;13.87;;;-2.80;99.90;-3.80;97408.00;;;;5088305;28;20431;-82
2022/01/27 04:08:44;;;;;;;27.93;17.07;;;-2.80;99.90;-3.60;97404.00;;;;5080880;28;20979;-82
2022/01/27 04:11:35;;;;;;;29.90;16.77;;;-2.90;99.90;-3.70;97397.00;;;;5091775;28;20433;-83
2022/01/27 04:14:23;;;;;;;28.27;15.57;;;-2.90;99.90;-3.70;97396.00;;;;5094173;28;20446;-82
2022/01/27 04:17:12;;;;;;;27.10;16.00;;;-2.90;99.90;-3.60;97404.00;;;;5093913;28;20433;-82
2022/01/27 04:20:03;;;;;;;30.10;17.13;;;-2.90;99.90;-3.80;97411.00;;;;5093293;28;20453;-82
2022/01/27 04:22:52;;;;;;;32.33;17.97;;;-2.90;99.90;-3.80;97413.00;;;;5092493;28;20430;-82
2022/01/27 04:25:41;;;;;;;23.10;13.23;;;-3.00;99.90;-3.80;97399.00;;;;5093222;28;20915;-82
2022/01/27 04:28:32;;;;;;;28.20;15.40;;;-2.90;99.90;-3.70;97401.00;;;;5091825;28;20447;-82
2022/01/27 04:31:23;;;;;;;24.80;16.20;;;-3.00;99.90;-3.60;97404.00;;;;5086365;28;20418;-82
2022/01/27 04:34:13;;;;;;;26.73;15.80;;;-3.00;99.90;-3.50;97406.00;;;;5088529;28;20445;-82
2022/01/27 04:37:04;;;;;;;30.30;17.80;;;-3.00;99.90;-3.50;97421.00;;;;5088848;28;20429;-82
2022/01/27 04:40:00;;;;;;;31.47;17.13;;;-2.90;99.90;-3.60;97410.00;;;;5071384;28;20482;-82
2022/01/27 04:42:56;;;;;;;28.83;16.87;;;-2.90;99.90;-3.80;97412.00;;;;5079047;28;20440;-82
2022/01/27 04:45:53;;;;;;;20.40;13.43;;;-3.00;99.90;-4.00;97396.00;;;;5090045;28;20436;-82
2022/01/27 04:48:46;;;;;;;26.43;17.37;;;-3.00;99.90;-3.90;97401.00;;;;5091477;28;20610;-82
2022/01/27 04:51:35;;;;;;;25.53;15.77;;;-3.10;99.90;-3.80;97394.00;;;;5093186;28;20939;-82
2022/01/27 04:54:30;;;;;;;22.83;14.33;;;-3.10;99.90;-4.20;97388.00;;;;5094197;28;20445;-82
2022/01/27 04:57:19;;;;;;;21.53;14.77;;;-3.10;99.90;-4.10;97388.00;;;;5094991;28;20436;-82
2022/01/27 05:00:12;;;;;;;19.67;13.57;;;-3.10;99.90;-3.90;97393.00;;;;5092814;28;20864;-82
2022/01/27 05:03:10;;;;;;;16.97;9.53;;;-3.20;99.90;-4.00;97384.00;;;;5089755;28;20509;-82
2022/01/27 05:05:59;;;;;;;23.50;15.60;;;-3.20;99.90;-4.00;97390.00;;;;5093418;28;20418;-82
2022/01/27 05:08:48;;;;;;;24.60;13.50;;;-3.20;99.90;-4.10;97390.00;;;;5079985;28;20429;-82
2022/01/27 05:11:45;;;;;;;29.10;15.77;;;-3.20;99.90;-4.10;97384.00;;;;5079766;28;20430;-82
2022/01/27 05:14:34;;;;;;;24.67;15.30;;;-3.30;99.90;-4.20;97383.00;;;;5091274;28;20449;-82
2022/01/27 05:17:23;;;;;;;31.47;16.83;;;-3.30;99.90;-4.20;97369.00;;;;5085236;28;20422;-85
2022/01/27 05:20:12;;;;;;;18.27;11.20;;;-3.40;99.90;-4.60;97371.00;;;;5090459;28;20473;-85
2022/01/27 05:23:01;;;;;;;22.67;12.47;;;-3.30;99.90;-4.30;97386.00;;;;5091243;28;20444;-85
2022/01/27 05:25:50;;;;;;;28.30;15.20;;;-3.50;99.90;-4.10;97384.00;;;;5083126;28;20432;-85
2022/01/27 05:28:40;;;;;;;21.40;12.70;;;-3.40;99.90;-4.20;97378.00;;;;5086844;28;20824;-85
2022/01/27 05:31:29;;;;;;;22.27;13.33;;;-2.80;99.90;-4.40;97379.00;;;;5082851;28;20471;-85
2022/01/27 05:34:19;;;;;;;20.73;13.33;;;-3.50;99.90;-4.50;97385.00;;;;5078834;28;20445;-85
2022/01/27 05:37:08;;;;;;;18.90;12.93;;;-2.40;99.90;-4.60;97387.00;;;;5079153;28;20982;-85
2022/01/27 05:39:58;;;;;;;23.83;13.13;;;-3.60;99.90;-4.50;97393.00;;;;5083152;28;20449;-86
2022/01/27 05:42:47;;;;;;;21.47;12.63;;;-2.50;99.90;-4.40;97387.00;;;;5081070;28;20426;-85
2022/01/27 05:45:39;;;;;;;19.57;12.97;;;-3.70;99.90;-4.30;97396.00;;;;5080502;28;20465;-85
2022/01/27 05:48:28;;;;;;;24.27;13.70;;;-3.60;99.90;-4.20;97395.00;;;;5078737;28;20449;-86
2022/01/27 05:51:17;;;;;;;30.33;17.00;;;-3.30;99.90;-4.20;97394.00;;;;5080913;28;20441;-84
2022/01/27 05:54:06;;;;;;;27.17;14.70;;;-3.60;99.90;-4.20;97396.00;;;;5081513;28;20519;-84
2022/01/27 05:56:55;;;;;;;27.67;13.80;;;-3.60;99.90;-4.50;97388.00;;;;5084670;28;20442;-85
2022/01/27 05:59:43;;;;;;;25.90;12.83;;;-3.60;99.90;-4.70;97393.00;;;;5082479;28;20441;-85
2022/01/27 06:02:34;;;;;;;24.20;14.43;;;-3.70;99.90;-4.70;97399.00;;;;5083315;28;20449;-84
2022/01/27 06:05:23;;;;;;;22.90;14.70;;;-3.70;99.90;-4.60;97397.00;;;;5080520;28;20521;-85
2022/01/27 06:08:12;;;;;;;22.30;12.03;;;-3.80;99.90;-4.80;97400.00;;;;5076573;28;20938;-84
2022/01/27 06:11:01;;;;;;;22.33;13.23;;;-3.80;99.90;-4.50;97405.00;;;;5077072;28;20437;-84
2022/01/27 06:13:50;;;;;;;20.50;11.57;;;-3.80;99.90;-4.80;97401.00;;;;5080046;28;20457;-85
2022/01/27 06:16:39;;;;;;;21.10;13.77;;;-3.90;99.90;-4.70;97393.00;;;;5079084;28;20825;-85
2022/01/27 06:19:30;;;;;;;26.10;14.90;;;-3.90;99.90;-4.80;97390.00;;;;5080797;28;20465;-84
2022/01/27 06:22:18;;;;;;;24.73;13.97;;;-3.90;99.90;-4.60;97414.00;;;;5079133;28;20465;-85
2022/01/27 06:25:09;;;;;;;30.27;15.73;;;-3.90;99.90;-4.60;97412.00;;;;5080019;28;20513;-84
2022/01/27 06:27:59;;;;;;;16.77;11.27;;;-3.90;99.90;-4.90;97405.00;;;;5077456;28;20950;-84
2022/01/27 06:30:48;;;;;;;29.13;14.37;;;-3.90;99.90;-4.90;97401.00;;;;5078955;28;20946;-84
2022/01/27 06:33:37;;;;;;;21.33;14.53;;;-3.90;99.90;-4.80;97410.00;;;;5078058;28;20480;-85
2022/01/27 06:36:27;;;;;;;23.27;15.83;;;-3.90;99.90;-4.50;97409.00;;;;5077064;28;20628;-85
2022/01/27 06:39:16;;;;;;;29.10;13.83;;;-3.10;99.90;-4.80;97413.00;;;;5076914;28;20745;-85
2022/01/27 06:42:07;;;;;;;20.33;14.37;;;-3.90;99.90;-4.80;97407.00;;;;5075482;28;20464;-84
2022/01/27 06:44:56;;;;;;;30.27;18.07;;;-4.00;99.90;-4.70;97417.00;;;;5076950;28;20450;-84
2022/01/27 06:47:45;;;;;;;26.27;15.33;;;-4.00;99.90;-4.70;97415.00;;;;5076629;28;21232;-85
2022/01/27 06:50:36;;;;;;;29.90;18.23;;;-4.00;99.90;-4.60;97433.00;;;;5079156;28;20655;-85
2022/01/27 06:53:26;;;;;;;28.17;15.47;;;-4.00;99.90;-4.60;97429.00;;;;5080058;28;20442;-85
2022/01/27 06:56:15;;;;;;;24.67;15.93;;;-4.00;99.90;-4.70;97445.00;;;;5079523;28;20904;-84
2022/01/27 06:59:04;;;;;;;31.53;19.10;;;-4.00;99.90;-4.90;97439.00;;;;5079361;28;20438;-85
2022/01/27 07:01:53;;;;;;;23.50;12.77;;;-4.00;99.90;-5.30;97419.00;;;;5074854;28;20482;-85
2022/01/27 07:04:42;;;;;;;27.03;16.73;;;-4.10;99.90;-5.00;97435.00;;;;5080869;28;20468;-84
2022/01/27 07:07:31;;;;;;;22.37;13.20;;;-4.30;99.90;-4.90;97435.00;;;;5076831;28;20430;-85
2022/01/27 07:10:21;;;;;;;26.83;15.37;;;-4.10;99.90;-4.80;97441.00;;;;5077870;28;20434;-85
2022/01/27 07:13:11;;;;;;;13.47;9.87;;;-4.10;99.90;-4.80;97439.00;;;;5080465;28;20439;-85
2022/01/27 07:16:00;;;;;;;22.57;13.20;;;-4.00;99.90;-4.70;97443.00;;;;5080105;28;21037;-85
2022/01/27 07:18:52;;;;;;;31.40;15.10;;;-4.00;99.90;-4.40;97420.00;;;;5078500;28;20492;-85
2022/01/27 07:21:40;;;;;;;26.07;15.50;;;-3.90;99.90;-4.40;97423.00;;;;5078765;28;20482;-86
2022/01/27 07:24:29;;;;;;;178.73;99.83;;;-3.80;99.90;-4.50;97423.00;;;;5075035;28;20848;-86
2022/01/27 07:27:20;;;;;;;23.10;16.00;;;-3.80;99.90;-4.40;97436.00;;;;5078796;28;20443;-86
2022/01/27 07:30:12;;;;;;;21.30;13.37;;;-3.70;99.90;-4.20;97434.00;;;;5079660;28;20862;-86
2022/01/27 07:33:00;;;;;;;32.90;19.73;;;-3.60;99.90;-4.10;97433.00;;;;5080804;28;20467;-86
2022/01/27 07:35:51;;;;;;;39.07;22.40;;;-3.60;99.90;-4.00;97428.00;;;;5078256;28;20445;-85
2022/01/27 07:38:40;;;;;;;28.67;16.47;;;-3.50;99.90;-4.10;97416.00;;;;5079065;28;20430;-86
2022/01/27 07:41:29;;;;;;;22.77;12.87;;;-3.40;99.90;-4.50;97405.00;;;;5080332;28;20469;-86
2022/01/27 07:44:19;;;;;;;18.77;13.17;;;-3.50;99.90;-4.30;97408.00;;;;5078320;28;20465;-86
2022/01/27 07:47:09;;;;;;;22.17;13.50;;;-1.70;99.90;-4.10;97403.00;;;;5078294;28;20434;-85
2022/01/27 07:49:58;;;;;;;20.20;11.90;;;-3.40;99.90;-4.20;97399.00;;;;5077848;28;20461;-86
2022/01/27 07:52:46;;;;;;;25.07;12.23;;;-3.40;99.90;-3.70;97390.00;;;;5075265;28;20438;-86
2022/01/27 07:55:35;;;;;;;20.87;14.40;;;-3.30;99.90;-3.50;97396.00;;;;5073612;28;20451;-85
2022/01/27 07:58:25;;;;;;;23.10;14.03;;;-3.10;99.90;-3.40;97389.00;;;;5077541;28;20519;-85
2022/01/27 08:01:16;;;;;;;23.17;13.93;;;-3.00;99.90;-3.30;97388.00;;;;5075783;28;20430;-84
2022/01/27 08:04:05;;;;;;;21.53;12.47;;;-2.80;99.90;-3.20;97388.00;;;;5079783;28;20978;-85
2022/01/27 08:06:54;;;;;;;24.20;14.00;;;-2.80;99.90;-3.00;97396.00;;;;5075222;28;20439;-85
2022/01/27 08:09:43;;;;;;;22.17;12.70;;;-2.70;99.90;-3.00;97386.00;;;;5075769;28;20448;-86
2022/01/27 08:12:32;;;;;;;24.10;12.17;;;-2.50;99.90;-3.10;97385.00;;;;5079113;28;20444;-85
2022/01/27 08:15:22;;;;;;;21.93;11.83;;;-2.50;99.90;-3.20;97371.00;;;;5076877;28;21629;-86
2022/01/27 08:18:12;;;;;;;27.63;14.10;;;-2.50;99.90;-2.90;97375.00;;;;5075558;28;20833;-85
2022/01/27 08:21:01;;;;;;;25.17;14.50;;;-2.40;99.90;-2.70;97400.00;;;;5077215;28;20440;-85
2022/01/27 08:23:51;;;;;;;21.50;13.17;;;-2.30;99.90;-2.60;97393.00;;;;5079761;28;20458;-85
2022/01/27 08:26:43;;;;;;;23.37;13.20;;;-1.40;99.90;-2.60;97387.00;;;;5080898;28;20462;-85
2022/01/27 08:29:37;;;;;;;22.87;13.60;;;-2.10;99.90;-2.50;97381.00;;;;5076615;28;20957;-85
2022/01/27 08:32:48;;;;;;;29.27;15.60;;;-2.00;99.90;-2.30;97359.00;;;;5084051;28;20451;-84
2022/01/27 08:35:38;;;;;;;26.43;15.97;;;-1.90;99.90;-2.10;97359.00;;;;5080636;28;20511;-85
2022/01/27 08:38:28;;;;;;;23.10;14.67;;;-0.90;99.90;-1.80;97366.00;;;;5080335;28;20430;-85
2022/01/27 08:41:16;;;;;;;24.17;14.13;;;-1.60;99.90;-1.90;97359.00;;;;5076592;28;20440;-85
2022/01/27 08:44:06;;;;;;;25.80;15.43;;;-1.50;99.90;-2.00;97368.00;;;;5083291;28;20932;-85
2022/01/27 08:46:55;;;;;;;21.73;14.77;;;-1.40;99.90;-1.90;97358.00;;;;5082414;28;20490;-86
2022/01/27 08:49:47;;;;;;;28.40;16.43;;;-1.20;99.90;-1.70;97363.00;;;;5078532;28;21347;-85
2022/01/27 08:52:38;;;;;;;29.57;17.30;;;-0.90;99.90;-1.40;97369.00;;;;5080708;28;20891;-85
2022/01/27 08:55:27;;;;;;;31.30;17.50;;;-1.10;99.90;-1.40;97361.00;;;;5076811;28;20454;-85
2022/01/27 08:58:15;;;;;;;25.20;16.63;;;-1.20;99.90;-1.40;97355.00;;;;5080478;28;20429;-85
2022/01/27 09:01:04;;;;;;;32.07;19.40;;;-1.10;99.90;-1.20;97355.00;;;;5078248;28;20437;-85
2022/01/27 09:03:53;;;;;;;33.03;17.70;;;-0.70;99.90;-1.00;97364.00;;;;5079757;28;20587;-85
2022/01/27 09:06:42;;;;;;;30.70;19.00;;;-0.80;99.90;-1.00;97353.00;;;;5080448;28;20493;-85
2022/01/27 09:09:33;;;;;;;29.10;16.93;;;-0.30;99.90;-0.80;97354.00;;;;5079073;28;20982;-85
2022/01/27 09:12:21;;;;;;;35.90;20.20;;;-0.40;99.90;-1.10;97347.00;;;;5084151;28;20438;-85
2022/01/27 09:15:11;;;;;;;39.90;19.70;;;-0.40;99.90;-0.60;97347.00;;;;5081845;28;21044;-85
2022/01/27 09:18:00;;;;;;;36.33;20.63;;;-0.30;99.90;-0.60;97349.00;;;;5077760;28;20452;-85
2022/01/27 09:20:49;;;;;;;30.47;19.47;;;0.00;99.90;-0.60;97343.00;;;;5079880;28;20880;-85
2022/01/27 09:23:38;;;;;;;34.83;20.80;;;-0.20;99.90;-0.30;97351.00;;;;5082420;28;20499;-84
2022/01/27 09:26:42;;;;;;;33.70;19.47;;;0.30;99.90;-0.40;97349.00;;;;5084317;28;20425;-85
2022/01/27 09:29:31;;;;;;;33.10;18.37;;;0.10;99.90;-0.40;97355.00;;;;5080967;28;20433;-85
2022/01/27 09:32:20;;;;;;;32.97;19.03;;;0.40;99.90;0.00;97341.00;;;;5080618;28;20796;-85
2022/01/27 09:35:10;;;;;;;29.37;18.67;;;0.30;99.90;0.20;97346.00;;;;5078401;28;20473;-85
2022/01/27 09:37:59;;;;;;;30.90;19.03;;;0.40;99.90;0.50;97354.00;;;;5079066;28;20988;-85
2022/01/27 09:40:51;;;;;;;32.00;18.77;;;0.50;99.90;0.70;97355.00;;;;5077997;28;20431;-85
2022/01/27 09:43:43;;;;;;;35.47;20.57;;;0.70;99.90;1.00;97347.00;;;;5079236;28;20519;-85
2022/01/27 09:46:33;;;;;;;30.30;17.93;;;1.30;99.90;1.70;97360.00;;;;5081245;28;20860;-85
2022/01/27 09:49:31;;;;;;;36.10;21.33;;;1.20;99.90;2.20;97362.00;;;;5081435;28;20450;-85
2022/01/27 09:52:20;;;;;;;36.93;20.10;;;2.20;99.90;2.50;97348.00;;;;5079415;28;20457;-88
2022/01/27 09:55:09;;;;;;;35.13;20.40;;;1.90;99.90;2.70;97342.00;;;;5075160;28;20468;-85
2022/01/27 09:58:01;;;;;;;38.07;20.23;;;2.20;99.90;3.00;97339.00;;;;5081464;28;20436;-85
2022/01/27 10:00:51;;;;;;;29.60;19.37;;;2.50;99.90;3.30;97346.00;;;;5079910;28;20442;-85
2022/01/27 10:04:12;;;;;;;33.93;20.97;;;2.80;99.90;3.60;97333.00;;;;5079192;28;20465;-85
2022/01/27 10:07:09;;;;;;;38.23;20.90;;;3.70;99.90;3.90;97341.00;;;;5076957;28;20433;-85
2022/01/27 10:10:17;;;;;;;42.37;20.17;;;3.30;99.90;4.10;97332.00;;;;5079681;28;20441;-85
2022/01/27 10:13:32;;;;;;;39.40;19.97;;;3.70;99.90;4.40;97336.00;;;;5079980;28;20440;-85
2022/01/27 10:16:54;;;;;;;36.97;18.93;;;3.90;99.90;4.50;97324.00;;;;5080943;28;20200;-85
2022/01/27 10:20:22;;;;;;;34.97;21.37;;;4.10;99.90;4.30;97329.00;;;;5075182;27;20725;-86
2022/01/27 10:23:38;;;;;;;35.67;20.40;;;4.20;99.90;4.30;97318.00;;;;5077990;28;20277;-85
2022/01/27 10:26:31;;;;;;;33.77;21.27;;;4.20;99.90;4.20;97310.00;;;;5078829;28;20687;-85
2022/01/27 10:29:34;;;;;;;34.93;20.50;;;4.20;99.90;4.20;97316.00;;;;5081946;28;20203;-85
2022/01/27 10:32:37;;;;;;;35.07;20.97;;;4.20;99.90;4.10;97293.00;;;;5079078;28;20203;-85
2022/01/27 10:35:28;;;;;;;36.43;22.47;;;4.20;99.90;4.20;97286.00;;;;5076899;28;20237;-85
2022/01/27 10:38:18;;;;;;;37.20;21.90;;;4.10;99.90;4.00;97294.00;;;;5077380;28;20210;-85
2022/01/27 10:41:08;;;;;;;37.90;23.37;;;4.10;99.90;4.00;97285.00;;;;5077208;28;20233;-85
2022/01/27 10:44:12;;;;;;;38.27;21.93;;;4.10;99.90;3.90;97273.00;;;;5078230;28;20236;-85
2022/01/27 10:47:09;;;;;;;35.53;21.90;;;4.00;99.90;4.00;97274.00;;;;5077791;28;20602;-85
2022/01/27 10:50:03;;;;;;;38.90;21.30;;;3.40;99.90;4.00;97266.00;;;;5076782;28;20586;-85
2022/01/27 10:52:57;;;;;;;41.43;21.40;;;3.00;99.90;4.10;97259.00;;;;5078095;28;20204;-85
2022/01/27 10:55:46;;;;;;;38.60;23.47;;;4.00;99.90;4.20;97258.00;;;;5079443;28;20207;-86
2022/01/27 10:58:37;;;;;;;35.70;22.27;;;4.10;99.90;4.30;97248.00;;;;5078999;28;20254;-85
2022/01/27 11:01:30;;;;;;;56.97;23.47;;;4.10;99.90;4.30;97237.00;;;;5075544;28;20203;-85
2022/01/27 11:04:21;;;;;;;41.70;20.70;;;4.20;99.90;4.40;97234.00;;;;5077465;28;20269;-86
2022/01/27 11:07:13;;;;;;;34.23;20.47;;;4.30;99.90;4.90;97217.00;;;;5076977;28;20532;-85
2022/01/27 11:10:04;;;;;;;39.43;20.30;;;4.40;99.90;5.70;97214.00;;;;5076918;28;20884;-86
2022/01/27 11:12:53;;;;;;;32.80;20.03;;;4.80;99.90;6.00;97210.00;;;;5076493;28;21436;-86
2022/01/27 11:25:52;;;;;;;31.73;20.63;;;6.00;99.90;6.70;97199.00;;;;5094266;27;20368;-75
2022/01/27 11:28:47;;;;;;;34.80;20.33;;;6.30;99.90;6.50;97207.00;;;;5103587;27;20206;-75
2022/01/27 11:31:51;;;;;;;33.37;20.77;;;6.40;99.90;6.20;97191.00;;;;5105330;27;20589;-75
2022/01/27 11:34:50;;;;;;;37.03;19.57;;;6.40;99.90;6.40;97199.00;;;;5102673;27;20294;-75
2022/01/27 11:37:39;;;;;;;29.57;22.07;;;6.30;99.90;5.80;97189.00;;;;5100456;27;20206;-75
2022/01/27 11:40:37;;;;;;;25.40;16.73;;;6.20;99.90;5.40;97180.00;;;;5098441;27;20206;-75
2022/01/27 11:43:33;;;;;;;31.87;18.40;;;6.00;99.90;5.70;97168.00;;;;5105914;28;20571;-74
2022/01/27 11:46:26;;;;;;;31.43;20.00;;;5.80;99.90;5.60;97183.00;;;;5102546;28;20238;-75
2022/01/27 11:49:59;;;;;;;28.30;17.80;;;5.70;99.90;5.50;97167.00;;;;5101535;28;20199;-74
2022/01/27 11:52:51;;;;;;;31.43;18.07;;;5.70;99.90;5.50;97155.00;;;;5114300;28;20221;-76
2022/01/27 11:55:45;;;;;;;27.53;17.87;;;5.60;99.90;5.60;97159.00;;;;5110867;28;20214;-75
2022/01/27 11:58:47;;;;;;;33.60;18.47;;;5.50;99.90;5.60;97142.00;;;;5103806;28;20202;-76
2022/01/27 12:01:36;;;;;;;28.43;17.53;;;5.50;99.90;5.30;97161.00;;;;5101608;28;20221;-76
2022/01/27 12:04:27;;;;;;;33.57;17.37;;;5.50;99.90;5.30;97133.00;;;;5101602;28;20231;-74
2022/01/27 12:07:16;;;;;;;36.83;17.63;;;5.40;99.90;5.50;97131.00;;;;5114740;28;20548;-75
2022/01/27 12:10:40;;;;;;;33.27;18.47;;;5.30;99.90;5.40;97135.00;;;;5101527;28;20202;-75
2022/01/27 12:14:01;;;;;;;29.20;17.70;;;5.40;99.90;5.50;97125.00;;;;5101491;28;20191;-77
2022/01/27 12:17:26;;;;;;;29.57;17.50;;;5.30;99.90;5.20;97119.00;;;;5068688;28;20210;-77
2022/01/27 12:20:14;;;;;;;26.10;17.23;;;5.20;99.90;5.10;97103.00;;;;5113942;28;20566;-75
2022/01/27 12:23:15;;;;;;;36.73;18.53;;;5.10;99.90;5.20;97103.00;;;;5104270;28;20202;-75
2022/01/27 12:26:06;;;;;;;29.37;17.83;;;5.10;99.90;5.20;97089.00;;;;5093932;28;20314;-75
2022/01/27 12:28:55;;;;;;;33.20;17.67;;;5.80;99.90;5.10;97084.00;;;;5090414;28;20211;-75
2022/01/27 12:31:47;;;;;;;30.97;17.10;;;5.10;99.90;5.10;97075.00;;;;5089784;28;20227;-75
2022/01/27 12:34:38;;;;;;;23.30;16.77;;;5.00;99.90;5.10;97084.00;;;;5095162;28;20262;-75
2022/01/27 12:37:34;;;;;;;33.03;17.60;;;5.00;99.90;5.10;97068.00;;;;5093428;28;20679;-76
2022/01/27 12:40:25;;;;;;;30.87;18.03;;;5.00;99.90;5.10;97060.00;;;;5086015;28;20207;-75
2022/01/27 12:43:17;;;;;;;27.27;17.77;;;4.90;99.90;5.10;97053.00;;;;5093741;28;20207;-74
2022/01/27 12:46:08;;;;;;;28.90;17.63;;;4.90;99.90;5.10;97052.00;;;;5092168;28;20461;-75
2022/01/27 12:49:01;;;;;;;30.10;18.90;;;4.90;99.90;5.00;97047.00;;;;5093482;28;21064;-75
2022/01/27 12:52:05;;;;;;;35.10;18.77;;;4.90;99.90;4.90;97059.00;;;;5089523;28;20599;-76
2022/01/27 12:54:54;;;;;;;31.90;19.53;;;4.90;99.90;4.80;97052.00;;;;5092024;28;20203;-76
2022/01/27 12:57:57;;;;;;;31.83;19.87;;;4.90;99.90;4.70;97053.00;;;;5089996;28;21005;-76
2022/01/27 13:00:49;;;;;;;58.97;30.37;;;4.80;99.90;4.70;97044.00;;;;5084709;28;20237;-76
2022/01/27 13:03:38;;;;;;;60.03;29.20;;;4.80;99.90;4.60;97042.00;;;;5088947;28;20200;-76
2022/01/27 13:06:31;;;;;;;62.00;28.20;;;4.70;99.90;4.60;97032.00;;;;5092705;28;20304;-76
2022/01/27 13:09:20;;;;;;;49.43;26.93;;;4.60;99.90;4.60;97035.00;;;;5090283;28;20209;-76